Cedar Fort, Utah
Current Conditions -  °F | °C
As of 6:51 PM on Saturday 22 Nov 2014 (Local Time) from KPVU Reporting Station
Light Rain Light Rain  
Wind Chill: -3°   Ceiling: 3700
Heat Index:   Visibility: 7mi
Dew Point:   Wind: 14mph
Humidity: 87%   Direction: 290°WNW
Pressure: 29.87"   Gusts: NA
Location:  40.1341°N, 112.043°W
Report Text: KPVU 230151Z 29012KT 7SM -RA SCT030 BKN037 OVC047 02/00 A2987
Loading
Personal Weather Stations






























Interactive Weather Map New forecast layout! Learn more

10-Day Weather Forecast

Advertisements
Track Severe Weather on mobile